ANDO2: Washita River, OK

Data processed at Sat Mar 10 2018 23:36


All information presented herein is the property of the government of the United States of America and may be revised or deleted at any time without prior notice.
Dissemination of this information without the expressed written consent of the Public Affairs Office, Tulsa District U.S. Army Corps of Engineers is strictly prohibited.
These data are gathered electronically and, as presented, have not undergone any form of quality control. These data are not guaranteed to be valid or correct.
Go to home page.
Go to station list.

Upstream stations:

Downstream station:
Previous Day
Next Day
Current Day
    
SHEF ID:       ANDO2     Washita River at Anadarko, OK
STATION TYPE:  

               PRECIP PRECIP(A)     STAGE  RIV-FLOW  BAT-LOAD
                   in        in        ft       cfs      volt
              Ccp-Rev   Ccp-Rev   Ccp-Rev   Ccp-Rev   Ccp-Rev
(US/Central)
03/08 00:00      0.00      0.00      7.22       218     12.73
03/08 01:00      0.00      0.00      7.22       218     12.65
03/08 02:00      0.00      0.00      7.22       218     12.65
03/08 03:00      0.00      0.00      7.22       218     12.65
03/08 04:00      0.00      0.00      7.22       218     12.65
03/08 05:00      0.00      0.00      7.23       224     12.57
03/08 06:00      0.00      0.00      7.23       224     12.57
03/08 07:00      0.00      0.00      7.23       224     12.49
03/08 08:00      0.00      0.00      7.22       218     13.13
03/08 09:00      0.00      0.00      7.22       218     13.44
03/08 10:00      0.00      0.00      7.23       224     13.60
03/08 11:00      0.00      0.00      7.24       229     13.92
03/08 12:00      0.00      0.00      7.26       239     14.08
03/08 13:00      0.00      0.00      7.27       244     14.08
03/08 14:00      0.00      0.00      7.27       244     13.60
03/08 15:00      0.00      0.00      7.26       239     13.53
03/08 16:00      0.00      0.00      7.27       244     13.92
03/08 17:00      0.00      0.00      7.26       239     13.37
03/08 18:00      0.00      0.00      7.26       239     13.37
03/08 19:00      0.00      0.00      7.26       239     13.21
03/08 20:00      0.00      0.00      7.25       234     12.89
03/08 21:00      0.00      0.00      7.24       229     12.81
03/08 22:00      0.00      0.00      7.24       229     12.73
03/08 23:00      0.00      0.00      7.24       229     12.73